Time;durP1;ratioP1;P1;durP2;ratioP2;P2;SDS_P1;SDS_P2;PMS_P1;PMS_P2;Temp;Humidity;BMP_temperature;BMP_pressure;BME280_temperature;BME280_humidity;BME280_pressure;Samples;Min_cycle;Max_cycle;Signal;HPM_P1;HPM_P2
2023/04/01 00:02:07;;;;;;;2.67;0.80;;;9.60;99.90;;;;;;5093759;28;20206;-47
2023/04/01 00:04:32;;;;;;;2.03;0.67;;;9.60;99.90;;;;;;5093499;28;20511;-46
2023/04/01 00:06:59;;;;;;;2.13;0.60;;;9.60;99.90;;;;;;5094048;28;20192;-46
2023/04/01 00:09:24;;;;;;;1.43;0.40;;;9.60;99.90;;;;;;5093553;28;20669;-47
2023/04/01 00:11:50;;;;;;;2.77;0.50;;;9.60;99.90;;;;;;5093316;28;20206;-47
2023/04/01 00:14:15;;;;;;;1.13;0.47;;;9.60;99.90;;;;;;5095391;28;20186;-49
2023/04/01 00:16:41;;;;;;;1.80;0.60;;;9.60;99.90;;;;;;5097851;28;20193;-48
2023/04/01 00:19:07;;;;;;;1.67;0.40;;;9.60;99.90;;;;;;5097579;28;20193;-49
2023/04/01 00:21:33;;;;;;;0.30;0.30;;;9.60;99.90;;;;;;5097595;28;20229;-47
2023/04/01 00:23:59;;;;;;;1.80;0.60;;;9.60;99.90;;;;;;5097445;28;20174;-45
2023/04/01 00:26:25;;;;;;;2.73;0.60;;;9.60;99.90;;;;;;5097394;28;20479;-47
2023/04/01 00:28:50;;;;;;;1.40;0.33;;;9.50;99.90;;;;;;5097315;28;20273;-47
2023/04/01 00:31:17;;;;;;;1.10;0.40;;;9.50;99.90;;;;;;5097257;28;20288;-47
2023/04/01 00:33:43;;;;;;;1.90;0.47;;;9.50;99.90;;;;;;5097240;28;20198;-47
2023/04/01 00:36:13;;;;;;;1.70;0.40;;;9.50;99.90;;;;;;5097795;28;20177;-47
2023/04/01 00:38:41;;;;;;;1.17;0.40;;;9.50;99.90;;;;;;5098199;28;20183;-47
2023/04/01 00:41:07;;;;;;;1.33;0.60;;;9.50;99.90;;;;;;5097012;28;20289;-49
2023/04/01 00:43:33;;;;;;;1.57;0.40;;;9.50;99.90;;;;;;5097318;28;20265;-50
2023/04/01 00:45:58;;;;;;;1.80;0.40;;;9.50;99.90;;;;;;5097078;28;20179;-47
2023/04/01 00:48:28;;;;;;;0.77;0.40;;;9.50;99.90;;;;;;5097241;28;20193;-47
2023/04/01 00:51:18;;;;;;;3.40;0.43;;;9.50;99.90;;;;;;5097313;28;20278;-47
2023/04/01 00:53:48;;;;;;;4.00;0.50;;;9.50;99.90;;;;;;5097158;28;20191;-47
2023/04/01 00:56:18;;;;;;;1.67;0.60;;;9.50;99.90;;;;;;5097333;28;20178;-47
2023/04/01 00:58:48;;;;;;;0.87;0.30;;;9.50;99.90;;;;;;5097088;28;20195;-47
2023/04/01 01:01:14;;;;;;;1.90;0.77;;;9.50;99.90;;;;;;5096604;28;20239;-46
2023/04/01 01:03:39;;;;;;;2.33;0.70;;;9.50;99.90;;;;;;5096677;28;20209;-49
2023/04/01 01:06:42;;;;;;;4.03;0.60;;;9.50;99.90;;;;;;5095318;28;20234;-48
2023/04/01 01:09:14;;;;;;;1.83;0.47;;;9.50;99.90;;;;;;5096930;28;20169;-48
2023/04/01 01:11:54;;;;;;;0.20;0.20;;;9.60;99.90;;;;;;5097114;28;20677;-47
2023/04/01 01:14:25;;;;;;;0.90;0.40;;;9.50;99.90;;;;;;5096579;28;20163;-47
2023/04/01 01:16:59;;;;;;;0.93;0.40;;;9.50;99.90;;;;;;5096476;28;20170;-47
2023/04/01 01:20:02;;;;;;;0.57;0.37;;;9.50;99.90;;;;;;5096753;28;20169;-48
2023/04/01 01:23:00;;;;;;;1.57;0.60;;;9.50;99.90;;;;;;5096223;28;20206;-48
2023/04/01 01:25:47;;;;;;;5.33;0.70;;;9.50;99.90;;;;;;5070747;28;20224;-47
2023/04/01 01:28:35;;;;;;;0.83;0.40;;;9.50;99.90;;;;;;5096207;28;20174;-46
2023/04/01 01:31:45;;;;;;;2.67;0.70;;;9.50;99.90;;;;;;5096677;28;20735;-47
2023/04/01 01:34:32;;;;;;;0.97;0.60;;;9.50;99.90;;;;;;5073140;28;20213;-47
2023/04/01 01:37:08;;;;;;;1.83;0.60;;;9.50;99.90;;;;;;5096304;28;20189;-47
2023/04/01 01:39:35;;;;;;;3.30;0.80;;;9.50;99.90;;;;;;5096060;28;20519;-47
2023/04/01 01:42:05;;;;;;;4.13;0.90;;;9.40;99.90;;;;;;5095855;28;20280;-46
2023/04/01 01:44:33;;;;;;;2.13;0.77;;;9.40;99.90;;;;;;5096198;28;20208;-48
2023/04/01 01:46:59;;;;;;;4.30;0.70;;;9.40;99.90;;;;;;5096077;28;20182;-48
2023/04/01 01:49:27;;;;;;;1.87;0.60;;;9.40;99.90;;;;;;5097105;28;20187;-47
2023/04/01 01:51:52;;;;;;;1.70;0.57;;;9.40;99.90;;;;;;5096115;28;20210;-46
2023/04/01 01:54:18;;;;;;;1.53;0.43;;;9.40;99.90;;;;;;5096282;28;20174;-48
2023/04/01 01:56:48;;;;;;;1.30;0.57;;;9.40;99.90;;;;;;5096051;28;20269;-47
2023/04/01 01:59:17;;;;;;;0.90;0.27;;;9.30;99.90;;;;;;5095643;28;20178;-48
2023/04/01 02:01:53;;;;;;;1.07;0.60;;;9.40;99.90;;;;;;5095616;28;20201;-48
2023/04/01 02:04:19;;;;;;;0.47;0.47;;;9.40;99.90;;;;;;5095618;28;20570;-48
2023/04/01 02:07:00;;;;;;;0.77;0.40;;;9.40;99.90;;;;;;5095744;28;20555;-47
2023/04/01 02:09:26;;;;;;;0.30;0.20;;;9.40;99.90;;;;;;5096198;28;20175;-48
2023/04/01 02:11:59;;;;;;;1.50;0.33;;;9.40;99.90;;;;;;5095694;28;20233;-47
2023/04/01 02:14:30;;;;;;;1.23;0.30;;;9.40;99.90;;;;;;5095877;28;20238;-50
2023/04/01 02:17:07;;;;;;;0.37;0.37;;;9.40;99.90;;;;;;5096115;28;20208;-51
2023/04/01 02:19:47;;;;;;;1.07;0.40;;;9.40;99.90;;;;;;5095754;28;20626;-50
2023/04/01 02:22:17;;;;;;;2.73;1.17;;;9.40;99.90;;;;;;5095499;28;20205;-49
2023/04/01 02:24:45;;;;;;;5.97;2.00;;;9.40;99.90;;;;;;5095438;28;20178;-50
2023/04/01 02:27:11;;;;;;;1.23;0.60;;;9.50;99.90;;;;;;5095059;28;20547;-49
2023/04/01 02:29:37;;;;;;;1.13;0.70;;;9.50;99.90;;;;;;5095005;28;20255;-51
2023/04/01 02:32:03;;;;;;;1.60;0.40;;;9.50;99.90;;;;;;5094872;28;20652;-50
2023/04/01 02:34:29;;;;;;;0.20;0.20;;;9.50;99.90;;;;;;5094875;28;20242;-49
2023/04/01 02:36:56;;;;;;;1.20;0.30;;;9.40;99.90;;;;;;5094692;28;20181;-50
2023/04/01 02:39:22;;;;;;;0.63;0.40;;;9.40;99.90;;;;;;5095052;28;20178;-50
2023/04/01 02:41:48;;;;;;;1.10;0.50;;;9.40;99.90;;;;;;5094963;28;20195;-52
2023/04/01 02:44:15;;;;;;;0.20;0.20;;;9.40;99.90;;;;;;5094971;28;20546;-50
2023/04/01 02:46:41;;;;;;;0.30;0.30;;;9.40;99.90;;;;;;5094790;28;20265;-50
2023/04/01 02:49:07;;;;;;;0.53;0.30;;;9.40;99.90;;;;;;5095094;28;20265;-49
2023/04/01 02:51:33;;;;;;;0.83;0.30;;;9.40;99.90;;;;;;5094691;28;20237;-49
2023/04/01 02:53:59;;;;;;;1.37;0.40;;;9.40;99.90;;;;;;5093531;28;20189;-50
2023/04/01 02:56:25;;;;;;;0.83;0.20;;;9.30;99.90;;;;;;5094598;28;20170;-50
2023/04/01 02:58:51;;;;;;;1.03;0.30;;;9.30;99.90;;;;;;5094451;28;20665;-49
2023/04/01 03:01:17;;;;;;;0.63;0.47;;;9.30;99.90;;;;;;5094448;28;20197;-49
2023/04/01 03:03:43;;;;;;;1.40;0.30;;;9.30;99.90;;;;;;5094912;28;20526;-51
2023/04/01 03:06:11;;;;;;;0.73;0.30;;;9.30;99.90;;;;;;5093337;28;20180;-50
2023/04/01 03:08:36;;;;;;;0.40;0.40;;;9.30;99.90;;;;;;5094610;28;20273;-49
2023/04/01 03:11:02;;;;;;;0.30;0.30;;;9.30;99.90;;;;;;5094079;28;20303;-50
2023/04/01 03:15:55;;;;;;;0.83;0.40;;;9.30;99.90;;;;;;5052562;28;20219;-46
2023/04/01 03:18:21;;;;;;;1.37;0.60;;;9.30;99.90;;;;;;5053887;28;20662;-46
2023/04/01 03:20:47;;;;;;;0.33;0.33;;;9.30;99.90;;;;;;5053824;28;20687;-44
2023/04/01 03:23:12;;;;;;;1.90;0.43;;;9.30;99.90;;;;;;5054276;28;20206;-46
2023/04/01 03:25:38;;;;;;;0.87;0.30;;;9.30;99.90;;;;;;5054932;28;20181;-52
2023/04/01 03:28:03;;;;;;;0.27;0.23;;;9.30;99.90;;;;;;5053692;28;20640;-50
2023/04/01 03:30:31;;;;;;;2.93;0.40;;;9.30;99.90;;;;;;5053614;28;20176;-48
2023/04/01 03:33:00;;;;;;;0.30;0.20;;;9.30;99.90;;;;;;5054115;28;20192;-51
2023/04/01 03:35:26;;;;;;;0.37;0.30;;;9.30;99.90;;;;;;5053752;28;20168;-48
2023/04/01 03:37:53;;;;;;;1.83;0.50;;;9.30;99.90;;;;;;5053877;28;20180;-50
2023/04/01 03:40:18;;;;;;;0.60;0.33;;;9.30;99.90;;;;;;5053840;28;20168;-50
2023/04/01 03:42:44;;;;;;;0.27;0.27;;;9.30;99.90;;;;;;5052523;28;20210;-49
2023/04/01 03:45:11;;;;;;;0.50;0.30;;;9.30;99.90;;;;;;5053537;28;20187;-50
2023/04/01 03:47:37;;;;;;;0.23;0.20;;;9.30;99.90;;;;;;5053563;28;20316;-51
2023/04/01 03:50:04;;;;;;;0.70;0.40;;;9.30;99.90;;;;;;5053375;28;20186;-50
2023/04/01 03:52:30;;;;;;;1.67;0.50;;;9.30;99.90;;;;;;5053550;28;20200;-52
2023/04/01 03:54:56;;;;;;;1.30;0.30;;;9.30;99.90;;;;;;5053443;28;20172;-50
2023/04/01 03:57:21;;;;;;;0.40;0.30;;;9.30;99.90;;;;;;5053584;28;20183;-50
2023/04/01 03:59:47;;;;;;;0.93;0.53;;;9.30;99.90;;;;;;5053539;28;20539;-50
2023/04/01 04:02:12;;;;;;;0.50;0.40;;;9.30;99.90;;;;;;5053445;28;20204;-52
2023/04/01 04:04:38;;;;;;;0.57;0.40;;;9.30;99.90;;;;;;5053248;28;20654;-51
2023/04/01 04:07:03;;;;;;;1.20;0.63;;;9.30;99.90;;;;;;5053509;28;20529;-49
2023/04/01 04:09:44;;;;;;;0.83;0.50;;;9.30;99.90;;;;;;5053172;28;20187;-50
2023/04/01 04:12:10;;;;;;;0.40;0.40;;;9.30;99.90;;;;;;5053070;28;20778;-51
2023/04/01 04:14:35;;;;;;;0.90;0.57;;;9.30;99.90;;;;;;5053031;28;20226;-51
2023/04/01 04:17:01;;;;;;;1.07;0.60;;;9.30;99.90;;;;;;5053587;28;20230;-46
2023/04/01 04:19:31;;;;;;;0.87;0.50;;;9.30;99.90;;;;;;5053111;28;20172;-45
2023/04/01 04:21:56;;;;;;;2.03;1.27;;;9.30;99.90;;;;;;5054093;28;20568;-46
2023/04/01 04:24:22;;;;;;;2.60;0.80;;;9.30;99.90;;;;;;5053341;28;20184;-46
2023/04/01 04:26:47;;;;;;;0.90;0.67;;;9.30;99.90;;;;;;5052997;28;20184;-46
2023/04/01 04:29:13;;;;;;;0.50;0.50;;;9.30;99.90;;;;;;5052962;28;20184;-46
2023/04/01 04:31:38;;;;;;;0.90;0.67;;;9.30;99.90;;;;;;5053085;28;20297;-47
2023/04/01 04:34:04;;;;;;;0.80;0.70;;;9.30;99.90;;;;;;5053000;28;20175;-47
2023/04/01 04:36:29;;;;;;;0.70;0.60;;;9.30;99.90;;;;;;5052932;28;20187;-47
2023/04/01 04:38:55;;;;;;;1.40;0.63;;;9.30;99.90;;;;;;5052895;28;20544;-47
2023/04/01 04:41:21;;;;;;;1.27;0.50;;;9.30;99.90;;;;;;5053175;28;20227;-46
2023/04/01 04:43:52;;;;;;;1.03;0.60;;;9.30;99.90;;;;;;5052827;28;20187;-48
2023/04/01 04:46:19;;;;;;;0.97;0.50;;;9.30;99.90;;;;;;5053933;28;20184;-46
2023/04/01 04:48:45;;;;;;;0.50;0.50;;;9.30;99.90;;;;;;5052766;28;20241;-46
2023/04/01 04:51:18;;;;;;;0.50;0.50;;;9.30;99.90;;;;;;5052857;28;20243;-47
2023/04/01 04:53:45;;;;;;;0.40;0.40;;;9.30;99.90;;;;;;5052883;28;20176;-49
2023/04/01 04:56:11;;;;;;;0.57;0.47;;;9.20;99.90;;;;;;5053036;28;20187;-48
2023/04/01 04:58:37;;;;;;;0.63;0.50;;;9.20;99.90;;;;;;5052754;28;20325;-47
2023/04/01 05:01:11;;;;;;;1.70;0.50;;;9.20;99.90;;;;;;5055453;28;20192;-47
2023/04/01 05:03:38;;;;;;;0.30;0.30;;;9.20;99.90;;;;;;5056707;28;20176;-46
2023/04/01 05:06:05;;;;;;;2.37;0.43;;;9.20;99.90;;;;;;5056663;28;20619;-46
2023/04/01 05:08:32;;;;;;;0.50;0.30;;;9.20;99.90;;;;;;5056414;28;20698;-46
2023/04/01 05:10:58;;;;;;;0.47;0.40;;;9.20;99.90;;;;;;5056744;28;20248;-47
2023/04/01 05:13:24;;;;;;;0.70;0.70;;;9.20;99.90;;;;;;5056291;28;20179;-48
2023/04/01 05:15:49;;;;;;;1.13;0.70;;;9.20;99.90;;;;;;5056103;28;20199;-47
2023/04/01 05:18:15;;;;;;;0.50;0.30;;;9.20;99.90;;;;;;5056472;28;20199;-47
2023/04/01 05:20:53;;;;;;;0.93;0.40;;;9.20;99.90;;;;;;5056050;28;20709;-46
2023/04/01 05:23:20;;;;;;;0.70;0.60;;;9.20;99.90;;;;;;5058214;28;20193;-47
2023/04/01 05:25:47;;;;;;;0.93;0.70;;;9.30;99.90;;;;;;5056290;28;20180;-46
2023/04/01 05:28:13;;;;;;;0.63;0.40;;;9.20;99.90;;;;;;5056014;28;20604;-48
2023/04/01 05:30:43;;;;;;;0.30;0.30;;;9.20;99.90;;;;;;5056199;28;20264;-47
2023/04/01 05:33:10;;;;;;;0.50;0.50;;;9.20;99.90;;;;;;5056616;28;20206;-45
2023/04/01 05:35:36;;;;;;;0.50;0.50;;;9.20;99.90;;;;;;5055872;28;20577;-46
2023/04/01 05:38:02;;;;;;;1.77;0.43;;;9.30;99.90;;;;;;5056304;28;20180;-47
2023/04/01 05:40:28;;;;;;;0.70;0.60;;;9.20;99.90;;;;;;5055917;28;20169;-48
2023/04/01 05:42:54;;;;;;;1.03;0.50;;;9.30;99.90;;;;;;5056025;28;20193;-47
2023/04/01 05:45:19;;;;;;;0.53;0.40;;;9.20;99.90;;;;;;5055808;28;20183;-47
2023/04/01 05:47:45;;;;;;;0.60;0.60;;;9.20;99.90;;;;;;5055595;28;20180;-48
2023/04/01 05:50:11;;;;;;;0.50;0.50;;;9.20;99.90;;;;;;5055807;28;20195;-47
2023/04/01 05:52:37;;;;;;;0.63;0.50;;;9.30;99.90;;;;;;5055616;28;20207;-47
2023/04/01 05:55:04;;;;;;;2.30;0.83;;;9.20;99.90;;;;;;5055725;28;20183;-46
2023/04/01 05:57:30;;;;;;;0.47;0.47;;;9.30;99.90;;;;;;5055449;28;20238;-47
2023/04/01 05:59:55;;;;;;;0.60;0.37;;;9.30;99.90;;;;;;5055432;28;20183;-47
2023/04/01 06:02:21;;;;;;;1.00;0.70;;;9.30;99.90;;;;;;5055326;28;20206;-48
2023/04/01 06:04:47;;;;;;;0.60;0.60;;;9.30;99.90;;;;;;5055280;28;20185;-48
2023/04/01 06:07:17;;;;;;;2.40;0.70;;;9.30;99.90;;;;;;5055449;28;20182;-46
2023/04/01 06:09:44;;;;;;;0.80;0.63;;;9.30;99.90;;;;;;5055222;28;20231;-47
2023/04/01 06:12:57;;;;;;;0.57;0.57;;;9.40;99.90;;;;;;5054294;28;20687;-48
2023/04/01 06:15:34;;;;;;;1.23;0.83;;;9.30;99.90;;;;;;4974020;28;20204;-48
2023/04/01 06:18:21;;;;;;;0.97;0.70;;;9.30;99.90;;;;;;5044694;28;20194;-47
2023/04/01 06:21:15;;;;;;;0.57;0.57;;;9.30;99.90;;;;;;5055386;28;20203;-47
2023/04/01 06:24:01;;;;;;;1.47;0.80;;;9.30;99.90;;;;;;5055578;28;20169;-47
2023/04/01 06:26:39;;;;;;;1.27;0.83;;;9.30;99.90;;;;;;5054872;28;20666;-46
2023/04/01 06:29:32;;;;;;;1.43;0.80;;;9.30;99.90;;;;;;5054768;28;20655;-48
2023/04/01 06:32:31;;;;;;;4.03;0.97;;;9.40;99.90;;;;;;5055046;28;20248;-49
2023/04/01 06:35:18;;;;;;;1.20;1.10;;;9.40;99.90;;;;;;5055118;28;20218;-48
2023/04/01 06:37:51;;;;;;;1.07;0.90;;;9.40;99.90;;;;;;5055207;28;20211;-48
2023/04/01 06:40:35;;;;;;;1.43;1.00;;;9.40;99.90;;;;;;5054779;28;20161;-48
2023/04/01 06:43:20;;;;;;;3.37;1.23;;;9.30;99.90;;;;;;5054986;28;20659;-45
2023/04/01 06:46:06;;;;;;;1.50;1.13;;;9.30;99.90;;;;;;5055033;28;20540;-44
2023/04/01 06:49:05;;;;;;;3.07;1.47;;;9.30;99.90;;;;;;5054757;28;20179;-44
2023/04/01 06:51:38;;;;;;;1.83;1.17;;;9.40;99.90;;;;;;5054827;28;20555;-46
2023/04/01 06:54:35;;;;;;;2.13;1.20;;;9.40;99.90;;;;;;5054837;28;20163;-45
2023/04/01 06:57:23;;;;;;;1.33;1.00;;;9.30;99.90;;;;;;5038210;28;20184;-45
2023/04/01 06:59:50;;;;;;;2.83;1.30;;;9.40;99.90;;;;;;5054332;28;20521;-46
2023/04/01 07:02:31;;;;;;;1.67;0.97;;;9.40;99.90;;;;;;5054197;28;20206;-44
2023/04/01 07:04:58;;;;;;;1.23;1.10;;;9.40;99.90;;;;;;5054742;28;20654;-47
2023/04/01 07:07:32;;;;;;;2.67;1.60;;;9.40;99.90;;;;;;5054402;28;20229;-46
2023/04/01 07:10:00;;;;;;;2.53;1.20;;;9.40;99.90;;;;;;5054381;28;20177;-45
2023/04/01 07:12:32;;;;;;;1.37;1.27;;;9.40;99.90;;;;;;5053886;28;20202;-45
2023/04/01 07:15:03;;;;;;;1.67;1.00;;;9.40;99.90;;;;;;5053933;28;20188;-46
2023/04/01 07:17:35;;;;;;;1.53;1.17;;;9.40;99.90;;;;;;5054193;28;20180;-46
2023/04/01 07:20:30;;;;;;;2.57;1.10;;;9.40;99.90;;;;;;5054723;28;20561;-45
2023/04/01 07:23:02;;;;;;;0.67;0.63;;;9.40;99.90;;;;;;5055832;28;20611;-46
2023/04/01 07:25:35;;;;;;;1.43;1.03;;;9.40;99.90;;;;;;5054085;28;20190;-48
2023/04/01 07:28:04;;;;;;;1.10;0.90;;;9.40;99.90;;;;;;5053795;28;20237;-46
2023/04/01 07:30:42;;;;;;;2.13;1.30;;;9.40;99.90;;;;;;5053889;28;20277;-49
2023/04/01 07:33:22;;;;;;;2.40;0.83;;;9.40;99.90;;;;;;5053673;28;20677;-48
2023/04/01 07:36:05;;;;;;;1.43;0.70;;;9.30;99.90;;;;;;5053967;28;20156;-48
2023/04/01 07:38:47;;;;;;;1.70;0.90;;;9.40;99.90;;;;;;5053741;28;20210;-48
2023/04/01 07:41:49;;;;;;;2.00;0.70;;;9.40;99.90;;;;;;5053776;28;20216;-47
2023/04/01 07:44:37;;;;;;;0.50;0.50;;;9.40;99.90;;;;;;5040003;28;20297;-49
2023/04/01 07:47:43;;;;;;;2.40;0.80;;;9.40;99.90;;;;;;5053972;28;20166;-48
2023/04/01 07:50:25;;;;;;;0.60;0.60;;;9.40;99.90;;;;;;5053432;28;20170;-48
2023/04/01 07:53:02;;;;;;;1.10;0.83;;;9.40;99.90;;;;;;5053852;28;20709;-50
2023/04/01 07:55:39;;;;;;;0.93;0.73;;;9.40;99.90;;;;;;5053524;28;20191;-49
2023/04/01 07:58:22;;;;;;;0.80;0.80;;;9.40;99.90;;;;;;5053620;28;20643;-49
2023/04/01 08:01:10;;;;;;;1.33;0.60;;;9.50;99.90;;;;;;5053268;28;20567;-48
2023/04/01 08:04:04;;;;;;;0.70;0.70;;;9.50;99.90;;;;;;5053488;28;20178;-50
2023/04/01 08:06:45;;;;;;;1.53;0.60;;;9.50;99.90;;;;;;5015986;28;20199;-47
2023/04/01 08:09:17;;;;;;;0.70;0.67;;;9.50;99.90;;;;;;5053553;28;20235;-50
2023/04/01 08:12:08;;;;;;;0.50;0.50;;;9.50;99.90;;;;;;5053189;28;20207;-50
2023/04/01 08:14:52;;;;;;;0.50;0.50;;;9.60;99.90;;;;;;5052941;28;20689;-48
2023/04/01 08:17:38;;;;;;;0.70;0.57;;;9.60;99.90;;;;;;5053428;28;20167;-49
2023/04/01 08:20:27;;;;;;;0.73;0.60;;;9.60;99.90;;;;;;5053273;28;20175;-48
2023/04/01 08:23:16;;;;;;;0.70;0.50;;;9.60;99.90;;;;;;5054473;28;20509;-51
2023/04/01 08:25:50;;;;;;;1.00;0.90;;;9.60;99.90;;;;;;5053362;28;20250;-49
2023/04/01 08:28:32;;;;;;;3.03;0.80;;;9.60;99.90;;;;;;5053400;28;20295;-50
2023/04/01 08:31:12;;;;;;;0.93;0.83;;;9.60;99.90;;;;;;5053286;28;20200;-51
2023/04/01 08:33:39;;;;;;;0.63;0.60;;;9.70;99.90;;;;;;5053572;28;20164;-48
2023/04/01 08:36:16;;;;;;;0.77;0.77;;;9.70;99.90;;;;;;5056172;28;20198;-50
2023/04/01 08:39:01;;;;;;;1.30;0.60;;;9.60;99.90;;;;;;5057468;28;20170;-51
2023/04/01 08:41:52;;;;;;;0.70;0.70;;;9.60;99.90;;;;;;5057305;28;20199;-50
2023/04/01 08:44:27;;;;;;;0.80;0.60;;;9.60;99.90;;;;;;5057457;28;20250;-51
2023/04/01 08:47:27;;;;;;;0.90;0.90;;;9.60;99.90;;;;;;5056727;28;20210;-50
2023/04/01 08:50:16;;;;;;;1.47;0.70;;;9.60;99.90;;;;;;5031103;28;20206;-49
2023/04/01 08:53:05;;;;;;;0.77;0.77;;;9.70;99.90;;;;;;5056793;28;20253;-52
2023/04/01 08:55:46;;;;;;;0.80;0.80;;;9.70;99.90;;;;;;5056889;28;20173;-50
2023/04/01 08:58:37;;;;;;;1.20;1.10;;;9.80;99.90;;;;;;5056894;28;20156;-50
2023/04/01 09:01:32;;;;;;;4.27;1.07;;;9.80;99.90;;;;;;5056434;28;20188;-53
2023/04/01 09:04:03;;;;;;;0.90;0.90;;;9.80;99.90;;;;;;5027528;28;20192;-52
2023/04/01 09:06:42;;;;;;;1.93;0.80;;;9.90;99.90;;;;;;5056718;28;20226;-52
2023/04/01 09:09:35;;;;;;;2.10;0.90;;;9.80;99.90;;;;;;5056617;28;20164;-45
2023/04/01 09:12:27;;;;;;;1.10;0.87;;;9.90;99.90;;;;;;5056466;28;20214;-46
2023/04/01 09:15:12;;;;;;;1.00;0.90;;;9.90;99.90;;;;;;5056067;28;20730;-52
2023/04/01 09:18:03;;;;;;;1.40;1.30;;;10.00;99.90;;;;;;5056511;28;20175;-52
2023/04/01 09:21:01;;;;;;;2.27;1.20;;;10.00;99.90;;;;;;5056410;28;20155;-50
2023/04/01 09:23:47;;;;;;;1.20;1.10;;;10.00;99.90;;;;;;5057555;28;20568;-46
2023/04/01 09:26:26;;;;;;;1.43;1.30;;;10.00;99.90;;;;;;5056284;28;20252;-46
2023/04/01 09:29:26;;;;;;;1.40;1.00;;;10.00;99.90;;;;;;5056251;28;20515;-48
2023/04/01 09:32:10;;;;;;;0.70;0.60;;;10.00;99.90;;;;;;5055772;28;20261;-48
2023/04/01 09:34:59;;;;;;;1.23;1.13;;;10.00;99.90;;;;;;5055926;28;20163;-48
2023/04/01 09:37:30;;;;;;;1.27;1.17;;;10.00;99.90;;;;;;5056054;28;20180;-47
2023/04/01 09:40:18;;;;;;;1.50;1.40;;;9.90;99.90;;;;;;5056080;28;20579;-47
2023/04/01 09:43:03;;;;;;;1.77;1.20;;;9.90;99.90;;;;;;5055733;28;20196;-47
2023/04/01 09:46:04;;;;;;;1.60;1.23;;;10.00;99.90;;;;;;5056138;28;20620;-48
2023/04/01 09:49:09;;;;;;;2.27;1.40;;;10.00;99.90;;;;;;5054983;28;20279;-48
2023/04/01 09:51:54;;;;;;;1.80;1.30;;;10.00;99.90;;;;;;5055864;28;20211;-49
2023/04/01 09:54:43;;;;;;;3.07;1.60;;;10.10;99.90;;;;;;5056379;28;20247;-45
2023/04/01 09:57:28;;;;;;;1.57;1.37;;;10.10;99.90;;;;;;5055724;28;20525;-45
2023/04/01 10:00:21;;;;;;;1.50;1.40;;;10.10;99.90;;;;;;5055722;28;20168;-48
2023/04/01 10:03:13;;;;;;;2.57;1.53;;;10.10;99.90;;;;;;5056102;28;20297;-48
2023/04/01 10:06:21;;;;;;;1.10;1.03;;;10.10;99.90;;;;;;5055261;28;20183;-46
2023/04/01 10:09:27;;;;;;;2.17;1.97;;;10.10;99.90;;;;;;5055515;28;20582;-47
2023/04/01 10:12:04;;;;;;;2.10;1.73;;;10.10;99.90;;;;;;5055179;28;20202;-45
2023/04/01 10:14:48;;;;;;;2.50;2.30;;;10.10;99.90;;;;;;5055215;28;20282;-50
2023/04/01 10:17:37;;;;;;;2.43;2.10;;;10.10;99.90;;;;;;5055333;28;20169;-46
2023/04/01 10:20:35;;;;;;;2.47;2.20;;;10.10;99.90;;;;;;5055276;28;20176;-47
2023/04/01 10:23:19;;;;;;;2.53;2.30;;;10.10;99.90;;;;;;5055884;28;20177;-47
2023/04/01 10:26:00;;;;;;;2.47;1.97;;;10.10;99.90;;;;;;5054965;28;20663;-45
2023/04/01 10:28:35;;;;;;;2.70;2.50;;;10.10;99.90;;;;;;5054905;28;20594;-45
2023/04/01 10:31:18;;;;;;;2.77;1.87;;;10.10;99.90;;;;;;5054938;28;20207;-48
2023/04/01 10:34:19;;;;;;;2.93;2.40;;;10.10;99.90;;;;;;5055052;28;20163;-45
2023/04/01 10:36:48;;;;;;;2.70;2.50;;;10.10;99.90;;;;;;5055006;28;20159;-45
2023/04/01 10:39:44;;;;;;;2.67;2.13;;;10.10;99.90;;;;;;5054682;28;20320;-45
2023/04/01 10:42:27;;;;;;;2.40;2.20;;;10.10;99.90;;;;;;5054549;28;20199;-46
2023/04/01 10:44:59;;;;;;;2.50;2.30;;;10.10;99.90;;;;;;5054831;28;20164;-46
2023/04/01 10:47:53;;;;;;;2.27;2.00;;;10.10;99.90;;;;;;5054558;28;20248;-46
2023/04/01 10:50:37;;;;;;;1.97;1.87;;;10.10;99.90;;;;;;5047150;28;20203;-43
2023/04/01 10:53:23;;;;;;;2.07;1.87;;;10.10;99.90;;;;;;5054394;28;20219;-47
2023/04/01 10:56:28;;;;;;;2.60;2.40;;;10.20;99.90;;;;;;5054664;28;20171;-44
2023/04/01 10:59:22;;;;;;;2.37;2.17;;;10.20;99.90;;;;;;5054002;28;20188;-48
2023/04/01 11:02:08;;;;;;;3.17;2.57;;;10.20;99.90;;;;;;5054153;28;20282;-47
2023/04/01 11:04:52;;;;;;;3.30;1.70;;;10.30;99.90;;;;;;5054517;28;20177;-45
2023/04/01 11:07:45;;;;;;;2.50;2.30;;;10.30;99.90;;;;;;5054131;28;20247;-46
2023/04/01 11:10:39;;;;;;;2.30;2.10;;;10.30;99.90;;;;;;5054331;28;20571;-45
2023/04/01 11:13:17;;;;;;;2.03;1.90;;;10.30;99.90;;;;;;5053999;28;20219;-47
2023/04/01 11:16:20;;;;;;;1.73;1.63;;;10.30;99.90;;;;;;5053897;28;20667;-45
2023/04/01 11:19:05;;;;;;;2.80;2.50;;;10.30;99.90;;;;;;5054506;28;20183;-47
2023/04/01 11:21:59;;;;;;;2.50;1.97;;;10.30;99.90;;;;;;5054022;28;20196;-47
2023/04/01 11:25:07;;;;;;;2.13;1.97;;;10.40;99.90;;;;;;5053717;28;20237;-45
2023/04/01 11:28:01;;;;;;;4.83;3.60;;;10.40;99.90;;;;;;5054045;28;20549;-49
2023/04/01 11:31:03;;;;;;;3.30;3.00;;;10.40;99.90;;;;;;5054097;28;20228;-45
2023/04/01 11:33:39;;;;;;;3.67;2.47;;;10.40;99.90;;;;;;5053616;28;20183;-46
2023/04/01 11:36:52;;;;;;;3.10;2.47;;;10.50;99.90;;;;;;5053912;28;20168;-46
2023/04/01 11:39:52;;;;;;;2.40;2.20;;;10.60;99.90;;;;;;5010464;28;20270;-48
2023/04/01 11:42:37;;;;;;;2.30;2.10;;;10.70;99.90;;;;;;5054217;28;20200;-47
2023/04/01 11:45:12;;;;;;;2.53;2.33;;;10.80;99.90;;;;;;5053483;28;20694;-47
2023/04/01 11:47:56;;;;;;;1.90;1.80;;;10.90;99.90;;;;;;5054188;28;20498;-44
2023/04/01 11:50:35;;;;;;;2.13;1.93;;;10.80;99.90;;;;;;5053737;28;20651;-44
2023/04/01 11:53:22;;;;;;;2.20;2.00;;;10.90;99.90;;;;;;5053380;28;20223;-48
2023/04/01 11:56:00;;;;;;;1.73;1.63;;;10.90;99.90;;;;;;5053690;28;20171;-47
2023/04/01 11:58:34;;;;;;;2.77;2.47;;;10.90;99.90;;;;;;5053864;28;20521;-48
2023/04/01 12:01:37;;;;;;;3.03;2.63;;;11.00;99.90;;;;;;5053528;28;20253;-45
2023/04/01 12:04:24;;;;;;;2.60;2.40;;;10.90;99.90;;;;;;5053250;28;20698;-47
2023/04/01 12:07:11;;;;;;;3.77;2.70;;;11.00;99.90;;;;;;5053262;28;20547;-48
2023/04/01 12:09:50;;;;;;;3.23;2.50;;;11.00;99.90;;;;;;5052426;28;20259;-45
2023/04/01 12:12:53;;;;;;;2.00;1.80;;;11.00;99.90;;;;;;5053144;28;20294;-44
2023/04/01 12:15:46;;;;;;;2.80;2.60;;;11.00;99.90;;;;;;5053113;28;20195;-51
2023/04/01 12:18:49;;;;;;;2.57;2.33;;;11.00;99.90;;;;;;5053212;28;20219;-52
2023/04/01 12:21:24;;;;;;;3.20;2.90;;;11.10;99.90;;;;;;5053300;28;20559;-50
2023/04/01 12:24:11;;;;;;;2.53;2.33;;;11.10;99.90;;;;;;5054495;28;20195;-49
2023/04/01 12:27:02;;;;;;;2.40;2.10;;;11.10;99.90;;;;;;5051788;28;20626;-50
2023/04/01 12:30:02;;;;;;;3.70;1.90;;;11.20;99.90;;;;;;5053054;28;20167;-50
2023/04/01 12:32:41;;;;;;;2.60;1.87;;;11.20;99.90;;;;;;5053170;28;20234;-52
2023/04/01 12:35:18;;;;;;;2.93;1.70;;;11.30;99.90;;;;;;5053320;28;20160;-51
2023/04/01 12:38:02;;;;;;;1.97;1.87;;;11.40;99.90;;;;;;5052957;28;20624;-50
2023/04/01 12:40:51;;;;;;;1.70;1.60;;;11.50;99.90;;;;;;5053188;28;20161;-51
2023/04/01 12:43:29;;;;;;;2.73;2.53;;;11.60;99.90;;;;;;5052905;28;20169;-50
2023/04/01 12:46:12;;;;;;;2.60;2.40;;;11.50;99.90;;;;;;5053249;28;20264;-49
2023/04/01 12:48:55;;;;;;;2.63;2.43;;;11.60;99.90;;;;;;5053188;28;20165;-50
2023/04/01 12:51:57;;;;;;;3.00;2.03;;;11.50;99.90;;;;;;5053354;28;20211;-52
2023/04/01 12:54:39;;;;;;;2.57;1.60;;;11.50;99.90;;;;;;5053806;28;20176;-51
2023/04/01 12:57:04;;;;;;;1.60;1.33;;;11.40;99.90;;;;;;5052814;28;20192;-51
2023/04/01 12:59:41;;;;;;;1.07;1.07;;;11.50;99.90;;;;;;5052672;28;20219;-50
2023/04/01 13:02:10;;;;;;;1.53;1.43;;;11.50;99.90;;;;;;5052918;28;20257;-51
2023/04/01 13:05:15;;;;;;;1.63;1.53;;;11.60;99.90;;;;;;5052949;28;20177;-50
2023/04/01 13:07:51;;;;;;;1.20;1.10;;;11.70;99.90;;;;;;5024684;28;20192;-51
2023/04/01 13:10:41;;;;;;;6.50;2.00;;;11.80;99.90;;;;;;5052669;28;20172;-51
2023/04/01 13:13:25;;;;;;;2.60;2.30;;;11.80;99.90;;;;;;5052908;28;20192;-52
2023/04/01 13:15:55;;;;;;;29.20;12.57;;;11.70;99.90;;;;;;5052571;28;20203;-52
2023/04/01 13:18:39;;;;;;;2.50;2.30;;;11.70;99.90;;;;;;5052808;28;20255;-52
2023/04/01 13:21:26;;;;;;;2.47;2.27;;;11.60;99.90;;;;;;5053640;28;20241;-52
2023/04/01 13:24:03;;;;;;;2.40;2.20;;;11.50;99.90;;;;;;5057145;28;20175;-43
2023/04/01 13:26:50;;;;;;;1.70;1.60;;;11.50;99.90;;;;;;5056291;28;20171;-46
2023/04/01 13:29:36;;;;;;;1.77;1.67;;;11.40;99.90;;;;;;5056408;28;20635;-45
2023/04/01 13:32:17;;;;;;;2.07;1.60;;;11.40;99.90;;;;;;5056128;28;20200;-48
2023/04/01 13:35:07;;;;;;;1.60;1.50;;;11.30;99.90;;;;;;5056257;28;20180;-45
2023/04/01 13:37:56;;;;;;;1.73;1.50;;;11.30;99.90;;;;;;5056131;28;20176;-49
2023/04/01 13:40:39;;;;;;;1.70;1.60;;;11.30;99.90;;;;;;5017489;28;20283;-47
2023/04/01 13:43:15;;;;;;;2.53;1.60;;;11.30;99.90;;;;;;5056669;28;20173;-46
2023/04/01 13:46:01;;;;;;;2.43;1.90;;;11.30;99.90;;;;;;5056086;28;20172;-48
2023/04/01 13:48:51;;;;;;;2.20;2.00;;;11.20;99.90;;;;;;5056197;28;20617;-44
2023/04/01 13:51:32;;;;;;;2.10;1.80;;;11.10;99.90;;;;;;5055929;28;20735;-48